METAR Data
IDs: Format: Raw Decoded Include TAF

Data at: 1943 UTC 21 Sep 2021

KFYV 211918Z 35013G20KT 10SM OVC030 21/13 A3021 RMK AO2 T02110128
KFYV 211853Z 34011G22KT 10SM BKN026 OVC031 21/13 A3021 RMK AO2 SLP217 T02060133
KFYV 211753Z 34015G23KT 10SM OVC018 19/14 A3020 RMK AO2 SLP216 60000 T01890139 10189 20167 51020
KFYV 211736Z 36010G19KT 10SM OVC016 19/14 A3019 RMK AO2 T01890144
KFYV 211653Z 34008KT 320V020 10SM OVC011 18/15 A3020 RMK AO2 SLP215 T01780150
KFYV 211553Z 35009G18KT 10SM OVC010 18/15 A3019 RMK AO2 SLP210 T01780150
KFYV 211509Z 10SM OVC010 18/16 A3015 RMK AO2 T01780156
KFYV 211453Z 36005KT 10SM OVC009 17/15 A3014 RMK AO2 SLP195 60000 T01720150 51009
KFYV 211451Z 36006KT 10SM OVC009 18/15 A3014 RMK AO2
KFYV 211400Z 36005KT 10SM OVC011 18/16 A3014 RMK AO2 T01780156
KFYV 211353Z 01005KT 10SM OVC009 17/15 A3014 RMK AO2 SLP193 T01720150
KFYV 211253Z 00000KT 10SM OVC009 17/16 A3011 RMK AO2 RAB26E35 CIG 008V014 SLP185 P0000 T01720156
KFYV 211217Z VRB03KT 10SM OVC009 17/16 A3010 RMK AO2 CIG 008V014 T01720156
KFYV 211153Z 35004KT 10SM BKN011 OVC021 17/16 A3009 RMK AO2 LTG DSNT E SLP174 60074 70074 T01720156 10250 20172 51039
KFYV 211130Z 35005G14KT 10SM BKN012 OVC040 18/16 A3008 RMK AO2 LTG DSNT NE T01780161
KFYV 211121Z 34009G17KT 10SM SCT010 BKN015 OVC039 18/16 A3008 RMK AO2 T01780161
KFYV 211108Z 35008KT 10SM SCT011 SCT015 OVC039 18/17 A3006 RMK AO2 T01830167
KFYV 211053Z 36006KT 10SM SCT011 BKN014 OVC038 18/17 A3006 RMK AO2 LTG DSNT N-SE RAE24 SLP162 P0000 T01830167
KFYV 211037Z AUTO 36005KT 10SM BKN013 OVC018 18/17 A3004 RMK AO2 LTG DSNT N-SE RAE24 P0000 T01830167
KFYV 211022Z AUTO VRB06G19KT 10SM VCTS -RA OVC015 18/17 A3004 RMK AO2 LTG DSNT ALQDS P0000 T01830167
KFYV 210953Z AUTO 36008G22KT 10SM -RA OVC010 18/17 A3001 RMK AO2 PK WND 34028/0927 LTG DSNT NW-E RAB29 CIG 005V013 SLP147 P0000 T01830167
KFYV 210923Z AUTO 33006KT 10SM OVC009 21/20 A3000 RMK AO2 LTG DSNT N AND NE CIG 007V013 T02110200
KFYV 210909Z AUTO 00000KT 10SM FEW007 BKN011 OVC020 21/20 A2998 RMK AO2 T02110200
KFYV 210858Z AUTO VRB03KT 10SM BKN011 BKN019 BKN090 21/20 A2997 RMK AO2 LTG DSNT N-SE T02110200
KFYV 210853Z AUTO 06006KT 10SM SCT012 SCT019 BKN048 21/20 A2997 RMK AO2 LTG DSNT N-SE RAE25 TSE17 SLP130 P0004 60074 T02110200 51008
KFYV 210818Z AUTO 28003KT 10SM -RA FEW055 SCT090 BKN110 21/20 A2993 RMK AO2 LTG DSNT ALQDS TSE17 P0004 T02060200
KFYV 210800Z AUTO 21004KT 3SM TSRA BR BKN042 BKN080 OVC100 21/20 A2994 RMK AO2 LTG DSNT ALQDS P0003 T02110200
KFYV 210753Z AUTO 19005KT 1 1/2SM +TSRA BR OVC040 21/19 A2994 RMK AO2 PK WND 30036/0702 LTG DSNT ALQDS RAB0658 SLP122 P0070 T02110194
KFYV 210729Z AUTO 29020G31KT 1 3/4SM +TSRA BR FEW013 BKN031 OVC080 21/19 A2995 RMK AO2 PK WND 30036/0702 LTG DSNT ALQDS RAB0658 P0033 T02110194
KFYV 210722Z AUTO VRB03KT 4SM +TSRA FEW018 BKN050 OVC080 21/18 A2998 RMK AO2 PK WND 30036/0702 LTG DSNT ALQDS RAB0658 P0018 T02110183
KFYV 210714Z AUTO VRB06G30KT 2 1/2SM -TSRA SCT023 BKN041 OVC085 21/18 A2998 RMK AO2 PK WND 30036/0702 LTG DSNT ALQDS RAB0658 P0012 T02060178
KFYV 210707Z AUTO 32015G36KT 3SM TSRA FEW016 BKN041 OVC070 21/18 A2996 RMK AO2 PK WND 30036/0702 LTG DSNT ALQDS RAB0658 PRESFR P0008 T02060178
KFYV 210653Z AUTO 32012G25KT 10SM TS FEW015 BKN029 OVC034 23/19 A3000 RMK AO2 PK WND 33030/0613 LTG DSNT ALQDS RAB01E10 TSB41 SLP141 P0000 T02280194
KFYV 210641Z AUTO 36009G16KT 10SM TS OVC028 23/19 A2999 RMK AO2 PK WND 33030/0613 LTG DSNT ALQDS RAB01E10 TSB41 P0000 T02330194
KFYV 210629Z AUTO VRB06G16KT 10SM BKN028 OVC038 23/19 A2998 RMK AO2 PK WND 33030/0613 LTG DSNT ALQDS RAB01E10 P0000 T02330194
KFYV 210614Z AUTO 34020G30KT 10SM VCTS BKN028 BKN039 OVC085 24/19 A2997 RMK AO2 PK WND 33030/0613 LTG DSNT W-NE RAB01E10 PRESRR P0000 T02390189
KFYV 210606Z AUTO 10SM -RA BKN026 BKN041 OVC090 25/19 A2994 RMK AO2 LTG DSNT W-NE RAB01 P0000 T02500194
KFYV 210553Z AUTO 35015G26KT 10SM FEW024 BKN090 BKN110 26/20 A2994 RMK AO2 PK WND 34026/0550 LTG DSNT W-NE RAB38E51 SLP121 P0000 60000 T02560200 10306 20256 403390194 50019
KFYV 210550Z AUTO 34016G26KT 10SM -RA BKN090 BKN110 26/21 A2995 RMK AO2 PK WND 34026/0550 LTG DSNT W-NE RAB38 PRESRR P0000
KFYV 210535Z AUTO 20005KT 10SM VCTS FEW090 BKN110 26/21 A2991 RMK AO2 LTG DSNT W-N T02610211
KFYV 210453Z AUTO 18006KT 10SM BKN100 27/21 A2990 RMK AO2 LTG DSNT NW SLP108 T02670211
KFYV 210353Z AUTO 17008G17KT 10SM BKN095 27/21 A2988 RMK AO2 SLP101 T02670211
KFYV 210253Z AUTO 17006KT 10SM CLR 27/20 A2990 RMK AO2 SLP107 T02670200 53020
KFYV 210153Z 14004KT 10SM CLR 27/19 A2987 RMK AO2 SLP098 T02720194
KFYV 210053Z 17004KT 10SM CLR 28/19 A2984 RMK AO2 SLP087 T02830189
KFYV 202353Z 16004KT 10SM CLR 31/18 A2984 RMK AO2 SLP087 T03060178 10339 20306 55001
KFYV 202253Z 16009KT 10SM CLR 32/18 A2983 RMK AO2 SLP085 T03170178
KFYV 202153Z 17011G19KT 10SM CLR 33/18 A2983 RMK AO2 SLP084 T03330183
KFYV 202053Z 15013G20KT 10SM CLR 33/18 A2984 RMK AO2 SLP087 T03330183 57017
KFYV 201953Z 18010G21KT 10SM CLR 33/19 A2986 RMK AO2 SLP093 T03330189